Weather observations for the past three days for
Chillicothe, Chillicothe Agri-Science Center
Imperial (Metric)
Date Time (cdt) Wind (mph) Vis. (mi.) Weather Sky Cond. Temperature (ºF) Relative Humidity Wind Chill (°F) Heat Index (°F) Pressure Precipitation (in)
Air Dwpt 6 hour altimeter (in) sea level (mb) 1 hr 3 hr 6 hr
Max. Min.
10 06:51 Vrbl 3 0.00 NULL NULL 48.9 30 61 48 48% 30.13 1019.9
10 05:51 N 5 0.00 NULL NULL 48.9 30.9 50% 48 30.1 1019.3
10 04:51 Calm 0.00 NULL NULL 50 33.1 52% 30.09 1018.1
10 03:51 N 3 0.00 NULL NULL 53.1 32 45% 30.07 1017.6
10 02:51 N 3 0.00 NULL NULL 55 33.1 44% 30.03 1016.1
10 01:51 N 5 0.00 NULL NULL 59 33.1 38% 30.01 1015.4
10 00:51 N 8 0.00 NULL NULL 61 36 71.1 59 39% 29.99 1014.7
09 23:51 N 3 0.00 NULL NULL 59 46 62% 29.95 1013.5
09 22:51 N 6 0.00 NULL NULL 62.1 45 54% 29.92 1012.5
09 21:51 Calm 0.00 NULL NULL 62.1 44.1 52% 29.92 1012.4
09 20:51 N 3 0.00 NULL NULL 66 43 43% 29.88 1011.3
09 19:51 N 7 0.00 NULL NULL 69.1 41 36% 29.83 1009.7
09 18:51 Calm 0.00 NULL NULL 69.1 55.9 82.9 64.9 63% 29.8 1008.8 0.05
09 17:51 W 5 0.00 NULL NULL 66 55 68% 29.8 1008.9 0.05
09 16:51 Vrbl 7 0.00 NULL NULL 81 44.1 27% 80 29.73 1005.9
09 15:51 Vrbl 6 0.00 NULL NULL 82 42.1 24% 80 29.74 1006.2
09 14:51 Vrbl 7 0.00 NULL NULL 81 43 26% 80 29.76 1006.9
09 13:51 Vrbl 5 0.00 NULL NULL 79 43 28% 78 29.77 1007.5
09 12:51 Vrbl 5 0.00 NULL NULL 78.1 44.1 78.1 53.1 30% 78 29.79 1008.1
09 11:51 Vrbl 3 0.00 NULL NULL 73 46 38% 29.79 1008.4
09 10:51 Vrbl 5 0.00 NULL NULL 69.1 51.1 53% 29.8 1008.7
09 09:51 Calm 0.00 NULL NULL 66 53.1 63% 29.79 1008.5
09 08:51 Vrbl 5 0.00 NULL NULL 60.1 53.1 78% 29.79 1008.8
09 07:51 Calm 0.00 NULL NULL 57 52 83% 29.78 1008.1
09 06:51 Calm 0.00 NULL NULL 53.1 51.1 54 50 93% 29.76 1007.6
09 05:51 SW 5 0.00 NULL NULL 53.1 51.1 93% 29.75 1007.4
09 04:51 SW 3 0.00 NULL NULL 51.1 50 96% 29.75 1007.2
09 03:51 SW 5 0.00 NULL NULL 53.1 52 96% 29.75 1007.2
09 02:51 SW 6 0.00 NULL NULL 54 53.1 97% 29.75 1007.3
09 01:51 SW 3 0.00 NULL NULL 52 52 100% 29.76 1007.6
09 00:51 S 3 0.00 NULL NULL 52 52 62.1 48.9 100% 29.77 1007.9
08 23:51 S 5 0.00 NULL NULL 52 51.1 97% 29.78 1008.4
08 22:51 Calm 0.00 NULL NULL 51.1 51.1 100% 29.79 1008.7
08 21:51 Calm 0.00 NULL NULL 51.1 51.1 100% 29.78 1008.4
08 20:51 Calm 0.00 NULL NULL 54 53.1 97% 29.77 1008.1
08 19:51 S 3 0.00 NULL NULL 59 53.1 81% 29.75 1007.4
08 18:51 S 5 0.00 NULL NULL 61 53.1 62.1 57.9 75% 29.75 1007.2 0.04
08 17:51 Calm 0.00 NULL NULL 61 54 78% 29.77 1008.2
08 16:51 S 3 0.00 NULL NULL 60.1 55 84% 29.78 1008.3
08 15:51 Vrbl 5 0.00 NULL NULL 59 54 83% 29.8 1009.0 0.04
08 14:51 S 3 0.00 NULL NULL 59 54 83% 29.8 1008.9
08 13:51 SE 5 0.00 NULL NULL 59 54 83% 29.81 1009.4 0.04
08 12:51 Calm 0.00 NULL NULL 59 51.1 62.1 50 75% 29.83 1009.9 0.01 0.02
08 11:51 Calm 0.00 NULL NULL 59 51.1 75% 29.84 1010.3
08 10:51 Calm 0.00 NULL NULL 59 50 72% 29.83 1010.0 0.01
08 09:51 SW 6 0.00 NULL NULL 61 48 63% 29.83 1009.7
08 08:51 S 5 0.00 NULL NULL 55.9 46.9 72% 29.85 1010.6
08 07:51 Calm 0.00 NULL NULL 53.1 48.9 86% 29.84 1010.3
08 06:51 Calm 0.00 NULL NULL 50 46 57 46.9 86% 29.83 1009.8
08 05:51 Calm 0.00 NULL NULL 48 45 89% 29.83 1009.9
08 04:51 S 3 0.00 NULL NULL 48 45 89% 29.82 1009.7
08 03:51 Calm 0.00 NULL NULL 48.9 45 86% 29.83 1009.7
08 02:51 S 3 0.00 NULL NULL 48 45 89% 29.83 1010.2
08 01:51 Calm 0.00 NULL NULL 52 45 77% 29.85 1010.6
08 00:51 Vrbl 3 0.00 NULL NULL 57 45 66.9 55 64% 29.87 1011.0
07 23:51 S 5 0.00 NULL NULL 57 44.1 62% 29.86 1010.7
07 22:51 S 9 0.00 NULL NULL 59 44.1 58% 29.86 1010.8
07 21:51 S 8 0.00 NULL NULL 60.1 44.1 56% 29.85 1010.3
07 20:51 S 5 0.00 NULL NULL 60.1 44.1 56% 29.83 1010.0
07 19:51 S 7 0.00 NULL NULL 64.9 43 45% 29.83 1009.8
07 18:51 S 10 G 23 0.00 NULL NULL 66.9 42.1 69.1 63 41% 29.83 1010.2
07 17:51 S 9 G 23 0.00 NULL NULL 68 43 40% 29.85 1010.7
07 16:51 SW 10 G 20 0.00 NULL NULL 66.9 42.1 41% 29.86 1011.3
07 15:51 S 12 G 22 0.00 NULL NULL 66 41 40% 29.87 1011.7
07 14:51 SW 9 G 20 0.00 NULL NULL 66 41 40% 29.89 1012.3
07 13:51 SW 8 G 23 0.00 NULL NULL 64.9 39.9 40% 29.92 1013.1
07 12:51 SW 10 G 21 0.00 NULL NULL 63 39 64.9 41 41% 29.93 1013.6
07 11:51 SW 9 G 25 0.00 NULL NULL 63 39.9 43% 29.96 1014.7
07 10:51 W 10 G 23 0.00 NULL NULL 61 39 44% 29.98 1015.4
07 09:51 W 8 G 22 0.00 NULL NULL 59 39.9 49% 29.99 1015.5
07 08:51 SW 7 0.00 NULL NULL 54 39.9 59% 30 1015.9
07 07:51 SW 7 0.00 NULL NULL 48.9 37.9 66% 46 30.01 1016.2
Date Time (cdt) Wind (mph) Vis. (mi.) Weather Sky Cond. Air Dwpt Max. Min. Relative Humidity Wind Chill (°F) Heat Index (°F) altimeter (in) sea level (mb) 1 hr 3 hr 6 hr
6 hour
Temperature (ºF) Pressure Precipitation (in)